sensor_id;sensor_type;location;lat;lon;timestamp;pressure;altitude;pressure_sealevel;temperature;humidity
14612;BME280;7392;52.078;11.650;2023-06-14T00:02:02;101007.13;;;16.26;58.46
14612;BME280;7392;52.078;11.650;2023-06-14T00:04:30;101008.16;;;16.19;58.57
14612;BME280;7392;52.078;11.650;2023-06-14T00:06:58;101007.38;;;16.14;58.79
14612;BME280;7392;52.078;11.650;2023-06-14T00:09:26;101012.91;;;16.07;59.41
14612;BME280;7392;52.078;11.650;2023-06-14T00:11:53;101004.09;;;16.01;59.63
14612;BME280;7392;52.078;11.650;2023-06-14T00:14:21;101002.38;;;15.97;59.95
14612;BME280;7392;52.078;11.650;2023-06-14T00:16:50;101013.19;;;15.94;60.50
14612;BME280;7392;52.078;11.650;2023-06-14T00:19:19;101015.97;;;15.87;60.48
14612;BME280;7392;52.078;11.650;2023-06-14T00:21:47;101018.72;;;15.83;60.68
14612;BME280;7392;52.078;11.650;2023-06-14T00:24:15;101021.53;;;15.77;61.21
14612;BME280;7392;52.078;11.650;2023-06-14T00:26:43;101018.06;;;15.70;61.65
14612;BME280;7392;52.078;11.650;2023-06-14T00:29:10;101014.56;;;15.66;61.62
14612;BME280;7392;52.078;11.650;2023-06-14T00:31:38;101004.84;;;15.61;61.92
14612;BME280;7392;52.078;11.650;2023-06-14T00:34:07;101009.38;;;15.56;62.19
14612;BME280;7392;52.078;11.650;2023-06-14T00:36:35;101018.44;;;15.50;62.68
14612;BME280;7392;52.078;11.650;2023-06-14T00:39:03;101016.72;;;15.46;63.20
14612;BME280;7392;52.078;11.650;2023-06-14T00:41:31;101013.28;;;15.39;63.29
14612;BME280;7392;52.078;11.650;2023-06-14T00:43:58;101007.19;;;15.31;63.66
14612;BME280;7392;52.078;11.650;2023-06-14T00:46:26;101013.56;;;15.24;63.91
14612;BME280;7392;52.078;11.650;2023-06-14T00:48:54;101018.06;;;15.20;64.89
14612;BME280;7392;52.078;11.650;2023-06-14T00:51:25;101016.34;;;15.16;65.38
14612;BME280;7392;52.078;11.650;2023-06-14T00:53:53;101012.00;;;15.10;65.40
14612;BME280;7392;52.078;11.650;2023-06-14T00:56:20;101014.72;;;15.07;65.57
14612;BME280;7392;52.078;11.650;2023-06-14T00:58:50;101018.34;;;15.03;66.11
14612;BME280;7392;52.078;11.650;2023-06-14T01:01:18;101018.41;;;14.99;66.54
14612;BME280;7392;52.078;11.650;2023-06-14T01:03:46;101020.28;;;14.93;66.40
14612;BME280;7392;52.078;11.650;2023-06-14T01:06:19;101020.34;;;14.89;66.52
14612;BME280;7392;52.078;11.650;2023-06-14T01:09:06;101024.03;;;14.82;66.50
14612;BME280;7392;52.078;11.650;2023-06-14T01:11:43;101021.44;;;14.74;67.06
14612;BME280;7392;52.078;11.650;2023-06-14T01:14:16;101028.72;;;14.67;67.06
14612;BME280;7392;52.078;11.650;2023-06-14T01:16:45;101028.81;;;14.59;67.86
14612;BME280;7392;52.078;11.650;2023-06-14T01:19:15;101026.22;;;14.52;68.14
14612;BME280;7392;52.078;11.650;2023-06-14T01:21:43;101018.31;;;14.44;68.36
14612;BME280;7392;52.078;11.650;2023-06-14T01:24:12;101029.97;;;14.37;68.58
14612;BME280;7392;52.078;11.650;2023-06-14T01:26:40;101026.50;;;14.30;68.88
14612;BME280;7392;52.078;11.650;2023-06-14T01:29:13;101025.69;;;14.24;69.24
14612;BME280;7392;52.078;11.650;2023-06-14T01:31:45;101018.66;;;14.18;69.89
14612;BME280;7392;52.078;11.650;2023-06-14T01:34:13;101019.59;;;14.12;70.07
14612;BME280;7392;52.078;11.650;2023-06-14T01:36:44;101017.00;;;14.08;70.25
14612;BME280;7392;52.078;11.650;2023-06-14T01:39:14;101024.19;;;14.02;70.61
14612;BME280;7392;52.078;11.650;2023-06-14T01:41:43;101030.44;;;13.98;70.72
14612;BME280;7392;52.078;11.650;2023-06-14T01:44:13;101026.06;;;13.93;71.57
14612;BME280;7392;52.078;11.650;2023-06-14T01:46:42;101026.09;;;13.91;71.80
14612;BME280;7392;52.078;11.650;2023-06-14T01:49:10;101019.03;;;13.89;71.93
14612;BME280;7392;52.078;11.650;2023-06-14T01:51:38;101020.81;;;13.85;71.90
14612;BME280;7392;52.078;11.650;2023-06-14T01:54:07;101019.06;;;13.82;72.39
14612;BME280;7392;52.078;11.650;2023-06-14T01:56:39;101022.66;;;13.78;72.30
14612;BME280;7392;52.078;11.650;2023-06-14T01:59:06;101026.25;;;13.76;72.82
14612;BME280;7392;52.078;11.650;2023-06-14T02:01:34;101023.63;;;13.73;73.00
14612;BME280;7392;52.078;11.650;2023-06-14T02:04:03;101029.00;;;13.68;72.95
14612;BME280;7392;52.078;11.650;2023-06-14T02:06:31;101024.59;;;13.64;73.08
14612;BME280;7392;52.078;11.650;2023-06-14T02:09:01;101026.44;;;13.60;73.45
14612;BME280;7392;52.078;11.650;2023-06-14T02:11:29;101028.25;;;13.57;73.56
14612;BME280;7392;52.078;11.650;2023-06-14T02:13:58;101029.13;;;13.54;73.88
14612;BME280;7392;52.078;11.650;2023-06-14T02:16:26;101026.53;;;13.51;73.84
14612;BME280;7392;52.078;11.650;2023-06-14T02:18:56;101037.22;;;13.50;74.08
14612;BME280;7392;52.078;11.650;2023-06-14T02:21:24;101029.22;;;13.46;74.15
14612;BME280;7392;52.078;11.650;2023-06-14T02:23:52;101025.69;;;13.44;74.52
14612;BME280;7392;52.078;11.650;2023-06-14T02:26:20;101026.56;;;13.45;75.03
14612;BME280;7392;52.078;11.650;2023-06-14T02:28:48;101028.34;;;13.46;74.92
14612;BME280;7392;52.078;11.650;2023-06-14T02:31:17;101030.97;;;13.47;74.66
14612;BME280;7392;52.078;11.650;2023-06-14T02:33:48;101028.31;;;13.47;74.90
14612;BME280;7392;52.078;11.650;2023-06-14T02:36:15;101030.97;;;13.47;74.67
14612;BME280;7392;52.078;11.650;2023-06-14T02:38:43;101023.03;;;13.46;74.35
14612;BME280;7392;52.078;11.650;2023-06-14T02:41:11;101028.41;;;13.41;74.49
14612;BME280;7392;52.078;11.650;2023-06-14T02:43:39;101024.88;;;13.39;74.87
14612;BME280;7392;52.078;11.650;2023-06-14T02:46:07;101025.75;;;13.37;74.84
14612;BME280;7392;52.078;11.650;2023-06-14T02:48:36;101033.78;;;13.35;75.21
14612;BME280;7392;52.078;11.650;2023-06-14T02:51:04;101030.25;;;13.33;75.49
14612;BME280;7392;52.078;11.650;2023-06-14T02:53:32;101043.56;;;13.30;75.46
14612;BME280;7392;52.078;11.650;2023-06-14T02:56:00;101041.84;;;13.24;75.49
14612;BME280;7392;52.078;11.650;2023-06-14T02:58:30;101046.31;;;13.22;75.62
14612;BME280;7392;52.078;11.650;2023-06-14T03:00:59;101030.34;;;13.18;76.14
14612;BME280;7392;52.078;11.650;2023-06-14T03:03:30;101041.94;;;13.15;76.36
14612;BME280;7392;52.078;11.650;2023-06-14T03:05:59;101033.97;;;13.12;76.33
14612;BME280;7392;52.078;11.650;2023-06-14T03:08:33;101040.19;;;13.09;76.45
14612;BME280;7392;52.078;11.650;2023-06-14T03:11:10;101049.09;;;13.07;76.71
14612;BME280;7392;52.078;11.650;2023-06-14T03:13:39;101052.66;;;13.06;77.00
14612;BME280;7392;52.078;11.650;2023-06-14T03:16:07;101055.31;;;13.04;77.15
14612;BME280;7392;52.078;11.650;2023-06-14T03:18:38;101056.25;;;13.03;77.33
14612;BME280;7392;52.078;11.650;2023-06-14T03:21:08;101055.34;;;13.00;77.28
14612;BME280;7392;52.078;11.650;2023-06-14T03:23:44;101055.34;;;13.00;77.75
14612;BME280;7392;52.078;11.650;2023-06-14T03:26:18;101058.03;;;13.00;78.00
14612;BME280;7392;52.078;11.650;2023-06-14T03:28:49;101060.72;;;12.97;78.08
14612;BME280;7392;52.078;11.650;2023-06-14T03:31:18;101065.16;;;12.96;78.44
14612;BME280;7392;52.078;11.650;2023-06-14T03:33:47;101068.75;;;12.95;78.79
14612;BME280;7392;52.078;11.650;2023-06-14T03:36:16;101074.94;;;12.96;78.75
14612;BME280;7392;52.078;11.650;2023-06-14T03:38:44;101080.28;;;12.94;79.16
14612;BME280;7392;52.078;11.650;2023-06-14T03:41:14;101082.94;;;12.94;79.12
14612;BME280;7392;52.078;11.650;2023-06-14T03:43:42;101082.94;;;12.94;79.29
14612;BME280;7392;52.078;11.650;2023-06-14T03:46:10;101085.63;;;12.94;79.61
14612;BME280;7392;52.078;11.650;2023-06-14T03:48:38;101082.09;;;12.92;79.79
14612;BME280;7392;52.078;11.650;2023-06-14T03:51:06;101085.63;;;12.93;80.14
14612;BME280;7392;52.078;11.650;2023-06-14T03:53:37;101088.31;;;12.91;80.14
14612;BME280;7392;52.078;11.650;2023-06-14T03:56:26;101088.28;;;12.93;80.51
14612;BME280;7392;52.078;11.650;2023-06-14T03:58:54;101101.63;;;12.94;80.84
14612;BME280;7392;52.078;11.650;2023-06-14T04:01:25;101097.16;;;12.95;81.13
14612;BME280;7392;52.078;11.650;2023-06-14T04:03:58;101090.06;;;12.94;81.08
14612;BME280;7392;52.078;11.650;2023-06-14T04:06:27;101098.06;;;12.95;81.31
14612;BME280;7392;52.078;11.650;2023-06-14T04:09:00;101085.59;;;12.97;81.54
14612;BME280;7392;52.078;11.650;2023-06-14T04:11:31;101089.16;;;12.98;81.82
14612;BME280;7392;52.078;11.650;2023-06-14T04:13:58;101093.59;;;12.99;81.81
14612;BME280;7392;52.078;11.650;2023-06-14T04:16:26;101092.69;;;13.00;81.94
14612;BME280;7392;52.078;11.650;2023-06-14T04:18:55;101097.13;;;13.02;82.20
14612;BME280;7392;52.078;11.650;2023-06-14T04:21:24;101093.53;;;13.06;82.48
14612;BME280;7392;52.078;11.650;2023-06-14T04:23:56;101099.75;;;13.08;81.94
14612;BME280;7392;52.078;11.650;2023-06-14T04:26:28;101092.63;;;13.10;82.08
14612;BME280;7392;52.078;11.650;2023-06-14T04:28:57;101096.16;;;13.11;82.25
14612;BME280;7392;52.078;11.650;2023-06-14T04:31:30;101095.28;;;13.14;82.38
14612;BME280;7392;52.078;11.650;2023-06-14T04:34:01;101094.34;;;13.18;82.34
14612;BME280;7392;52.078;11.650;2023-06-14T04:36:33;101105.88;;;13.21;82.69
14612;BME280;7392;52.078;11.650;2023-06-14T04:39:03;101109.41;;;13.26;82.40
14612;BME280;7392;52.078;11.650;2023-06-14T04:41:33;101112.03;;;13.29;82.59
14612;BME280;7392;52.078;11.650;2023-06-14T04:44:02;101116.47;;;13.35;82.65
14612;BME280;7392;52.078;11.650;2023-06-14T04:46:37;101114.63;;;13.42;82.97
14612;BME280;7392;52.078;11.650;2023-06-14T04:49:16;101121.75;;;13.46;82.96
14612;BME280;7392;52.078;11.650;2023-06-14T04:51:45;101120.78;;;13.52;83.16
14612;BME280;7392;52.078;11.650;2023-06-14T04:54:13;101109.19;;;13.56;83.30
14612;BME280;7392;52.078;11.650;2023-06-14T04:56:43;101118.94;;;13.61;82.62
14612;BME280;7392;52.078;11.650;2023-06-14T04:59:11;101113.53;;;13.66;82.79
14612;BME280;7392;52.078;11.650;2023-06-14T05:01:41;101117.97;;;13.70;83.12
14612;BME280;7392;52.078;11.650;2023-06-14T05:04:14;101118.75;;;13.78;83.01
14612;BME280;7392;52.078;11.650;2023-06-14T05:06:44;101121.38;;;13.84;83.16
14612;BME280;7392;52.078;11.650;2023-06-14T05:09:15;101122.19;;;13.93;82.87
14612;BME280;7392;52.078;11.650;2023-06-14T05:11:45;101123.00;;;14.01;82.65
14612;BME280;7392;52.078;11.650;2023-06-14T05:14:15;101123.81;;;14.09;82.43
14612;BME280;7392;52.078;11.650;2023-06-14T05:16:42;101124.59;;;14.16;82.24
14612;BME280;7392;52.078;11.650;2023-06-14T05:19:10;101120.97;;;14.25;82.40
14612;BME280;7392;52.078;11.650;2023-06-14T05:21:38;101120.84;;;14.34;82.21
14612;BME280;7392;52.078;11.650;2023-06-14T05:24:09;101125.19;;;14.43;81.82
14612;BME280;7392;52.078;11.650;2023-06-14T05:26:38;101128.66;;;14.51;81.51
14612;BME280;7392;52.078;11.650;2023-06-14T05:29:07;101133.91;;;14.62;81.39
14612;BME280;7392;52.078;11.650;2023-06-14T05:31:35;101134.72;;;14.68;80.84
14612;BME280;7392;52.078;11.650;2023-06-14T05:34:03;101130.13;;;14.78;80.90
14612;BME280;7392;52.078;11.650;2023-06-14T05:36:30;101124.66;;;14.86;80.35
14612;BME280;7392;52.078;11.650;2023-06-14T05:38:58;101137.94;;;14.93;79.72
14612;BME280;7392;52.078;11.650;2023-06-14T05:41:27;101120.91;;;15.01;79.46
14612;BME280;7392;52.078;11.650;2023-06-14T05:43:55;101126.16;;;15.08;79.29
14612;BME280;7392;52.078;11.650;2023-06-14T05:46:24;101134.03;;;15.16;78.90
14612;BME280;7392;52.078;11.650;2023-06-14T05:48:53;101125.09;;;15.20;78.68
14612;BME280;7392;52.078;11.650;2023-06-14T05:51:21;101123.25;;;15.24;78.25
14612;BME280;7392;52.078;11.650;2023-06-14T05:53:52;101126.72;;;15.30;78.57
14612;BME280;7392;52.078;11.650;2023-06-14T05:56:20;101129.25;;;15.38;78.37
14612;BME280;7392;52.078;11.650;2023-06-14T05:58:49;101131.88;;;15.43;78.50
14612;BME280;7392;52.078;11.650;2023-06-14T06:01:17;101135.31;;;15.49;78.43
14612;BME280;7392;52.078;11.650;2023-06-14T06:03:48;101137.00;;;15.55;78.53
14612;BME280;7392;52.078;11.650;2023-06-14T06:06:16;101138.66;;;15.62;78.46
14612;BME280;7392;52.078;11.650;2023-06-14T06:08:43;101151.03;;;15.69;78.32
14612;BME280;7392;52.078;11.650;2023-06-14T06:11:11;101155.44;;;15.75;77.75
14612;BME280;7392;52.078;11.650;2023-06-14T06:13:39;101156.22;;;15.82;77.22
14612;BME280;7392;52.078;11.650;2023-06-14T06:16:09;101159.63;;;15.90;76.69
14612;BME280;7392;52.078;11.650;2023-06-14T06:18:36;101152.41;;;15.95;75.82
14612;BME280;7392;52.078;11.650;2023-06-14T06:21:06;101154.97;;;16.01;75.66
14612;BME280;7392;52.078;11.650;2023-06-14T06:23:34;101161.13;;;16.08;75.15
14612;BME280;7392;52.078;11.650;2023-06-14T06:26:03;101149.38;;;16.14;74.86
14612;BME280;7392;52.078;11.650;2023-06-14T06:28:33;101149.28;;;16.20;74.95
14612;BME280;7392;52.078;11.650;2023-06-14T06:31:02;101160.78;;;16.26;74.33
14612;BME280;7392;52.078;11.650;2023-06-14T06:33:31;101164.25;;;16.32;73.57
14612;BME280;7392;52.078;11.650;2023-06-14T06:35:58;101163.22;;;16.39;73.41
14612;BME280;7392;52.078;11.650;2023-06-14T06:38:27;101164.84;;;16.46;73.03
14612;BME280;7392;52.078;11.650;2023-06-14T06:40:55;101166.53;;;16.52;72.53
14612;BME280;7392;52.078;11.650;2023-06-14T06:43:24;101168.19;;;16.59;72.69
14612;BME280;7392;52.078;11.650;2023-06-14T06:45:52;101171.63;;;16.66;72.69
14612;BME280;7392;52.078;11.650;2023-06-14T06:48:21;101162.53;;;16.73;72.13
14612;BME280;7392;52.078;11.650;2023-06-14T06:50:49;101173.06;;;16.80;71.50
14612;BME280;7392;52.078;11.650;2023-06-14T06:53:17;101163.97;;;16.89;70.79
14612;BME280;7392;52.078;11.650;2023-06-14T06:56:02;101172.72;;;16.99;70.67
14612;BME280;7392;52.078;11.650;2023-06-14T06:58:29;101173.44;;;17.07;69.99
14612;BME280;7392;52.078;11.650;2023-06-14T07:00:57;101175.06;;;17.14;69.17
14612;BME280;7392;52.078;11.650;2023-06-14T07:03:25;101174.91;;;17.20;68.24
14612;BME280;7392;52.078;11.650;2023-06-14T07:05:53;101163.13;;;17.28;68.26
14612;BME280;7392;52.078;11.650;2023-06-14T07:08:20;101174.56;;;17.36;67.89
14612;BME280;7392;52.078;11.650;2023-06-14T07:10:48;101172.63;;;17.43;67.05
14612;BME280;7392;52.078;11.650;2023-06-14T07:13:17;101170.56;;;17.52;67.55
14612;BME280;7392;52.078;11.650;2023-06-14T07:15:45;101170.38;;;17.62;66.75
14612;BME280;7392;52.078;11.650;2023-06-14T07:18:13;101169.22;;;17.72;66.58
14612;BME280;7392;52.078;11.650;2023-06-14T07:20:42;101176.22;;;17.77;64.45
14612;BME280;7392;52.078;11.650;2023-06-14T07:23:11;101172.53;;;17.83;63.47
14612;BME280;7392;52.078;11.650;2023-06-14T07:25:42;101183.97;;;17.91;63.22
14612;BME280;7392;52.078;11.650;2023-06-14T07:28:10;101176.63;;;17.98;62.41
14612;BME280;7392;52.078;11.650;2023-06-14T07:30:39;101183.56;;;18.07;62.23
14612;BME280;7392;52.078;11.650;2023-06-14T07:33:06;101177.16;;;18.12;61.83
14612;BME280;7392;52.078;11.650;2023-06-14T07:35:35;101173.31;;;18.23;62.35
14612;BME280;7392;52.078;11.650;2023-06-14T07:38:08;101178.28;;;18.37;61.44
14612;BME280;7392;52.078;11.650;2023-06-14T07:40:40;101170.00;;;18.44;60.28
14612;BME280;7392;52.078;11.650;2023-06-14T07:43:08;101176.91;;;18.53;59.39
14612;BME280;7392;52.078;11.650;2023-06-14T07:45:36;101174.84;;;18.63;59.32
14612;BME280;7392;52.078;11.650;2023-06-14T07:48:09;101171.81;;;18.75;59.14
14612;BME280;7392;52.078;11.650;2023-06-14T07:50:39;101175.97;;;18.87;59.04
14612;BME280;7392;52.078;11.650;2023-06-14T07:53:07;101169.47;;;18.94;58.27
14612;BME280;7392;52.078;11.650;2023-06-14T07:55:35;101179.97;;;19.03;58.06
14612;BME280;7392;52.078;11.650;2023-06-14T07:58:18;101176.94;;;19.14;57.25
14612;BME280;7392;52.078;11.650;2023-06-14T08:00:46;101171.28;;;19.23;57.05
14612;BME280;7392;52.078;11.650;2023-06-14T08:03:15;101172.81;;;19.32;56.34
14612;BME280;7392;52.078;11.650;2023-06-14T08:05:43;101172.50;;;19.41;55.65
14612;BME280;7392;52.078;11.650;2023-06-14T08:08:11;101175.78;;;19.51;54.79
14612;BME280;7392;52.078;11.650;2023-06-14T08:10:39;101169.09;;;19.63;55.40
14612;BME280;7392;52.078;11.650;2023-06-14T08:13:07;101177.69;;;19.76;55.13
14612;BME280;7392;52.078;11.650;2023-06-14T08:15:36;101176.38;;;19.88;55.00
14612;BME280;7392;52.078;11.650;2023-06-14T08:18:04;101176.09;;;19.97;54.27
14612;BME280;7392;52.078;11.650;2023-06-14T08:20:33;101182.19;;;20.02;53.93
14612;BME280;7392;52.078;11.650;2023-06-14T08:23:02;101171.75;;;20.18;54.70
14612;BME280;7392;52.078;11.650;2023-06-14T08:25:30;101174.00;;;20.30;53.79
14612;BME280;7392;52.078;11.650;2023-06-14T08:27:58;101173.75;;;20.38;53.24
14612;BME280;7392;52.078;11.650;2023-06-14T08:30:26;101173.28;;;20.50;53.01
14612;BME280;7392;52.078;11.650;2023-06-14T08:32:53;101162.13;;;20.60;51.90
14612;BME280;7392;52.078;11.650;2023-06-14T08:35:43;101175.28;;;20.70;51.83
14612;BME280;7392;52.078;11.650;2023-06-14T08:38:12;101164.53;;;20.69;51.93
14612;BME280;7392;52.078;11.650;2023-06-14T08:40:41;101171.13;;;20.60;51.04
14612;BME280;7392;52.078;11.650;2023-06-14T08:43:09;101170.75;;;20.71;52.32
14612;BME280;7392;52.078;11.650;2023-06-14T08:45:39;101162.81;;;20.90;52.57
14612;BME280;7392;52.078;11.650;2023-06-14T08:48:10;101163.72;;;21.13;53.04
14612;BME280;7392;52.078;11.650;2023-06-14T08:50:46;101164.84;;;21.30;52.39
14612;BME280;7392;52.078;11.650;2023-06-14T08:53:19;101167.16;;;21.40;51.41
14612;BME280;7392;52.078;11.650;2023-06-14T08:55:47;101165.34;;;21.40;50.17
14612;BME280;7392;52.078;11.650;2023-06-14T08:58:17;101164.66;;;21.35;50.26
14612;BME280;7392;52.078;11.650;2023-06-14T09:00:46;101161.22;;;21.54;51.27
14612;BME280;7392;52.078;11.650;2023-06-14T09:03:14;101168.44;;;21.75;50.59
14612;BME280;7392;52.078;11.650;2023-06-14T09:05:42;101172.94;;;21.97;49.40
14612;BME280;7392;52.078;11.650;2023-06-14T09:08:11;101173.88;;;22.16;48.86
14612;BME280;7392;52.078;11.650;2023-06-14T09:10:40;101162.06;;;22.39;48.64
14612;BME280;7392;52.078;11.650;2023-06-14T09:13:08;101162.97;;;22.59;48.16
14612;BME280;7392;52.078;11.650;2023-06-14T09:15:35;101168.34;;;22.79;47.40
14612;BME280;7392;52.078;11.650;2023-06-14T09:18:03;101169.09;;;23.02;47.13
14612;BME280;7392;52.078;11.650;2023-06-14T09:20:33;101159.25;;;23.20;47.03
14612;BME280;7392;52.078;11.650;2023-06-14T09:23:02;101171.34;;;23.49;47.69
14612;BME280;7392;52.078;11.650;2023-06-14T09:25:36;101161.34;;;23.69;45.32
14612;BME280;7392;52.078;11.650;2023-06-14T09:28:09;101170.88;;;23.78;45.23
14612;BME280;7392;52.078;11.650;2023-06-14T09:30:37;101173.47;;;23.98;45.03
14612;BME280;7392;52.078;11.650;2023-06-14T09:33:05;101170.88;;;24.30;46.57
14612;BME280;7392;52.078;11.650;2023-06-14T09:35:33;101171.97;;;24.61;45.38
14612;BME280;7392;52.078;11.650;2023-06-14T09:38:02;101171.41;;;24.88;44.30
14612;BME280;7392;52.078;11.650;2023-06-14T09:40:35;101176.53;;;25.10;43.28
14612;BME280;7392;52.078;11.650;2023-06-14T09:43:06;101170.00;;;25.30;42.77
14612;BME280;7392;52.078;11.650;2023-06-14T09:45:35;101171.19;;;25.56;43.35
14612;BME280;7392;52.078;11.650;2023-06-14T09:48:04;101173.44;;;25.80;43.01
14612;BME280;7392;52.078;11.650;2023-06-14T09:50:34;101171.66;;;25.94;41.58
14612;BME280;7392;52.078;11.650;2023-06-14T09:53:05;101169.31;;;26.19;41.45
14612;BME280;7392;52.078;11.650;2023-06-14T09:55:36;101169.91;;;26.24;40.39
14612;BME280;7392;52.078;11.650;2023-06-14T09:58:06;101170.78;;;26.24;39.82
14612;BME280;7392;52.078;11.650;2023-06-14T10:00:35;101161.06;;;26.49;40.72
14612;BME280;7392;52.078;11.650;2023-06-14T10:03:12;101165.59;;;26.79;41.10
14612;BME280;7392;52.078;11.650;2023-06-14T10:05:43;101162.38;;;27.01;40.27
14612;BME280;7392;52.078;11.650;2023-06-14T10:08:14;101154.25;;;27.14;38.61
14612;BME280;7392;52.078;11.650;2023-06-14T10:10:45;101156.56;;;27.34;39.32
14612;BME280;7392;52.078;11.650;2023-06-14T10:13:13;101161.38;;;27.58;39.07
14612;BME280;7392;52.078;11.650;2023-06-14T10:15:48;101150.75;;;27.80;38.73
14612;BME280;7392;52.078;11.650;2023-06-14T10:18:24;101151.06;;;28.03;38.43
14612;BME280;7392;52.078;11.650;2023-06-14T10:21:01;101155.00;;;28.25;37.98
14612;BME280;7392;52.078;11.650;2023-06-14T10:23:33;101142.13;;;28.40;37.76
14612;BME280;7392;52.078;11.650;2023-06-14T10:26:05;101148.28;;;28.56;38.24
14612;BME280;7392;52.078;11.650;2023-06-14T10:28:37;101150.44;;;28.64;37.66
14612;BME280;7392;52.078;11.650;2023-06-14T10:31:06;101153.38;;;28.48;36.88
14612;BME280;7392;52.078;11.650;2023-06-14T10:33:40;101150.88;;;28.45;36.79
14612;BME280;7392;52.078;11.650;2023-06-14T10:36:27;101148.88;;;28.47;36.54
14612;BME280;7392;52.078;11.650;2023-06-14T10:39:07;101137.34;;;28.56;36.61
14612;BME280;7392;52.078;11.650;2023-06-14T10:41:38;101144.97;;;28.64;36.35
14612;BME280;7392;52.078;11.650;2023-06-14T10:44:40;101145.56;;;28.56;36.05
14612;BME280;7392;52.078;11.650;2023-06-14T10:47:20;101144.72;;;28.54;36.20
14612;BME280;7392;52.078;11.650;2023-06-14T10:49:51;101137.22;;;28.58;37.01
14612;BME280;7392;52.078;11.650;2023-06-14T10:52:24;101142.69;;;28.70;36.14
14612;BME280;7392;52.078;11.650;2023-06-14T10:55:05;101128.75;;;28.99;36.50
14612;BME280;7392;52.078;11.650;2023-06-14T10:57:40;101132.13;;;29.03;33.68
14612;BME280;7392;52.078;11.650;2023-06-14T11:00:19;101126.53;;;29.04;33.52
14612;BME280;7392;52.078;11.650;2023-06-14T11:05:53;101127.69;;;29.26;34.35
14612;BME280;7392;52.078;11.650;2023-06-14T11:08:40;101124.16;;;29.37;34.22
14612;BME280;7392;52.078;11.650;2023-06-14T11:11:12;101121.34;;;29.25;34.54
14612;BME280;7392;52.078;11.650;2023-06-14T11:13:44;101120.00;;;29.31;34.54
14612;BME280;7392;52.078;11.650;2023-06-14T11:16:18;101116.94;;;29.36;34.76
14612;BME280;7392;52.078;11.650;2023-06-14T11:18:46;101113.91;;;29.52;34.66
14612;BME280;7392;52.078;11.650;2023-06-14T11:21:17;101117.09;;;29.70;35.13
14612;BME280;7392;52.078;11.650;2023-06-14T11:23:49;101108.13;;;29.92;34.76
14612;BME280;7392;52.078;11.650;2023-06-14T11:26:25;101109.72;;;29.94;33.12
14612;BME280;7392;52.078;11.650;2023-06-14T11:28:58;101106.50;;;29.65;32.01
14612;BME280;7392;52.078;11.650;2023-06-14T11:31:27;101103.25;;;29.36;32.08
14612;BME280;7392;52.078;11.650;2023-06-14T11:33:57;101100.53;;;29.36;32.36
14612;BME280;7392;52.078;11.650;2023-06-14T11:36:26;101101.38;;;29.36;32.86
14612;BME280;7392;52.078;11.650;2023-06-14T11:39:00;101103.44;;;29.21;32.62
14612;BME280;7392;52.078;11.650;2023-06-14T11:41:39;101099.22;;;29.04;32.49
14612;BME280;7392;52.078;11.650;2023-06-14T11:44:09;101099.28;;;28.79;32.41
14612;BME280;7392;52.078;11.650;2023-06-14T11:46:37;101095.38;;;28.70;32.67
14612;BME280;7392;52.078;11.650;2023-06-14T11:49:04;101099.63;;;28.74;33.00
14612;BME280;7392;52.078;11.650;2023-06-14T11:51:36;101102.66;;;28.82;33.22
14612;BME280;7392;52.078;11.650;2023-06-14T11:54:05;101099.28;;;28.79;33.10
14612;BME280;7392;52.078;11.650;2023-06-14T11:56:34;101089.94;;;28.94;33.53
14612;BME280;7392;52.078;11.650;2023-06-14T11:59:03;101093.19;;;28.75;32.64
14612;BME280;7392;52.078;11.650;2023-06-14T12:01:35;101090.78;;;28.45;32.71
14612;BME280;7392;52.078;11.650;2023-06-14T12:04:03;101087.84;;;28.61;33.41
14612;BME280;7392;52.078;11.650;2023-06-14T12:06:31;101077.47;;;28.90;33.43
14612;BME280;7392;52.078;11.650;2023-06-14T12:09:04;101080.13;;;29.16;32.69
14612;BME280;7392;52.078;11.650;2023-06-14T12:11:34;101074.56;;;29.17;32.83
14612;BME280;7392;52.078;11.650;2023-06-14T12:14:03;101085.66;;;29.03;32.67
14612;BME280;7392;52.078;11.650;2023-06-14T12:16:34;101078.72;;;28.86;32.71
14612;BME280;7392;52.078;11.650;2023-06-14T12:19:12;101089.91;;;28.70;32.44
14612;BME280;7392;52.078;11.650;2023-06-14T12:21:40;101083.22;;;28.74;32.34
14612;BME280;7392;52.078;11.650;2023-06-14T12:24:09;101080.06;;;29.04;32.57
14612;BME280;7392;52.078;11.650;2023-06-14T12:26:39;101073.50;;;29.20;32.85
14612;BME280;7392;52.078;11.650;2023-06-14T12:29:08;101070.41;;;29.24;32.54
14612;BME280;7392;52.078;11.650;2023-06-14T12:31:38;101070.53;;;29.23;32.80
14612;BME280;7392;52.078;11.650;2023-06-14T12:34:06;101073.84;;;29.02;32.58
14612;BME280;7392;52.078;11.650;2023-06-14T12:36:34;101078.19;;;28.81;32.34
14612;BME280;7392;52.078;11.650;2023-06-14T12:39:07;101067.69;;;28.75;32.83
14612;BME280;7392;52.078;11.650;2023-06-14T12:41:34;101073.22;;;28.62;32.23
14612;BME280;7392;52.078;11.650;2023-06-14T12:44:04;101080.50;;;28.48;32.16
14612;BME280;7392;52.078;11.650;2023-06-14T12:46:34;101080.19;;;28.40;32.27
14612;BME280;7392;52.078;11.650;2023-06-14T12:49:04;101080.31;;;28.26;32.12
14612;BME280;7392;52.078;11.650;2023-06-14T12:51:33;101074.84;;;28.13;31.97
14612;BME280;7392;52.078;11.650;2023-06-14T12:54:01;101074.63;;;28.16;32.45
14612;BME280;7392;52.078;11.650;2023-06-14T12:56:29;101077.91;;;28.08;33.03
14612;BME280;7392;52.078;11.650;2023-06-14T12:58:58;101076.34;;;27.91;32.39
14612;BME280;7392;52.078;11.650;2023-06-14T13:01:25;101074.69;;;27.76;32.87
14612;BME280;7392;52.078;11.650;2023-06-14T13:03:53;101078.59;;;27.59;32.82
14612;BME280;7392;52.078;11.650;2023-06-14T13:06:23;101074.06;;;27.45;32.84
14612;BME280;7392;52.078;11.650;2023-06-14T13:08:51;101071.22;;;27.47;33.59